createdAt,value
2022-09-15T00:01:29.116Z,14.69
2022-09-15T00:11:36.237Z,14.68
2022-09-15T00:21:43.845Z,14.65
2022-09-15T00:31:49.450Z,14.60
2022-09-15T00:41:55.046Z,14.57
2022-09-15T00:52:05.662Z,14.56
2022-09-15T01:02:17.062Z,14.56
2022-09-15T01:12:25.098Z,14.52
2022-09-15T01:22:42.114Z,14.41
2022-09-15T01:33:20.834Z,14.24
2022-09-15T01:43:29.588Z,14.01
2022-09-15T01:53:36.587Z,13.92
2022-09-15T02:03:47.051Z,13.89
2022-09-15T02:14:03.770Z,13.89
2022-09-15T02:24:13.658Z,13.91
2022-09-15T02:34:22.725Z,13.86
2022-09-15T02:44:30.580Z,13.78
2022-09-15T02:54:36.268Z,13.74
2022-09-15T03:04:41.930Z,13.68
2022-09-15T03:14:47.920Z,13.62
2022-09-15T03:24:53.534Z,13.58
2022-09-15T03:34:59.356Z,13.50
2022-09-15T03:45:05.395Z,13.47
2022-09-15T03:55:11.802Z,13.42
2022-09-15T04:05:17.432Z,13.30
2022-09-15T04:15:23.717Z,13.23
2022-09-15T04:25:29.573Z,13.19
2022-09-15T04:35:35.214Z,13.15
2022-09-15T04:45:40.994Z,13.06
2022-09-15T04:55:46.646Z,13.00
2022-09-15T05:05:52.540Z,12.97
2022-09-15T05:16:04.012Z,13.02
2022-09-15T05:26:13.368Z,13.10
2022-09-15T05:36:21.367Z,13.12
2022-09-15T05:46:27.869Z,13.23
2022-09-15T05:56:34.086Z,13.35
2022-09-15T06:06:39.746Z,13.49
2022-09-15T06:16:45.805Z,13.66
2022-09-15T06:26:51.539Z,13.82
2022-09-15T06:36:57.194Z,14.12
2022-09-15T06:47:02.906Z,14.51
2022-09-15T06:57:08.679Z,14.96
2022-09-15T07:07:14.281Z,16.09
2022-09-15T07:17:19.925Z,16.18
2022-09-15T07:27:30.230Z,18.93
2022-09-15T07:37:36.172Z,23.58
2022-09-15T07:47:41.756Z,30.78
2022-09-15T07:57:47.458Z,33.44
2022-09-15T08:07:53.072Z,33.11
2022-09-15T08:17:58.883Z,35.39
2022-09-15T08:28:05.238Z,37.86
2022-09-15T08:38:11.182Z,39.59
2022-09-15T08:48:21.389Z,36.87
2022-09-15T08:58:29.734Z,29.00
2022-09-15T09:08:52.245Z,26.35
2022-09-15T09:19:22.505Z,24.72
2022-09-15T09:29:35.814Z,22.59
2022-09-15T09:39:41.432Z,22.02
2022-09-15T09:49:50.474Z,22.26
2022-09-15T09:59:56.662Z,21.88
2022-09-15T10:10:03.138Z,22.05
2022-09-15T10:20:25.620Z,21.87
2022-09-15T10:30:31.465Z,21.23
2022-09-15T10:40:47.122Z,20.53
2022-09-15T10:51:00.074Z,20.40
2022-09-15T11:01:23.094Z,20.50
2022-09-15T11:11:36.881Z,20.56
2022-09-15T11:21:48.372Z,20.76
2022-09-15T11:42:12.684Z,20.28
2022-09-15T11:52:35.632Z,20.55
2022-09-15T12:02:48.694Z,19.84
2022-09-15T12:12:56.715Z,19.82
2022-09-15T12:23:03.758Z,20.09
2022-09-15T12:33:54.706Z,20.33
2022-09-15T12:44:15.628Z,20.52
2022-09-15T12:54:28.409Z,20.06
2022-09-15T13:04:58.029Z,19.32
2022-09-15T13:15:06.324Z,18.33
2022-09-15T13:25:20.724Z,17.79
2022-09-15T13:35:39.898Z,17.62
2022-09-15T13:45:58.435Z,17.78
2022-09-15T13:56:07.909Z,17.95
2022-09-15T14:06:16.351Z,17.79
2022-09-15T14:16:30.135Z,18.25
2022-09-15T14:26:37.663Z,18.58
2022-09-15T14:36:43.514Z,18.26
2022-09-15T14:46:49.627Z,18.09
2022-09-15T14:56:57.838Z,18.16
2022-09-15T15:07:08.289Z,18.10
2022-09-15T15:17:29.000Z,18.06
2022-09-15T15:27:44.176Z,17.71
2022-09-15T15:37:50.678Z,17.47
2022-09-15T15:47:56.640Z,17.42
2022-09-15T15:58:02.241Z,17.31
2022-09-15T16:08:12.450Z,16.85
2022-09-15T16:18:18.406Z,16.48
2022-09-15T16:28:24.200Z,16.07
2022-09-15T16:38:29.989Z,15.73
2022-09-15T16:48:35.617Z,15.39
2022-09-15T16:58:41.641Z,14.98
2022-09-15T17:08:47.663Z,14.66
2022-09-15T17:18:53.415Z,14.46
2022-09-15T17:28:59.046Z,14.33
2022-09-15T17:39:04.844Z,14.26
2022-09-15T17:49:10.426Z,14.08
2022-09-15T17:59:16.337Z,13.89
2022-09-15T18:09:22.205Z,13.73
2022-09-15T18:19:27.799Z,13.76
2022-09-15T18:29:33.588Z,13.82
2022-09-15T18:39:39.205Z,13.86
2022-09-15T18:49:44.942Z,13.90
2022-09-15T18:59:50.906Z,13.86
2022-09-15T19:09:57.266Z,13.82
2022-09-15T19:20:03.403Z,13.71
2022-09-15T19:30:11.978Z,13.61
2022-09-15T19:40:18.246Z,13.48
2022-09-15T19:50:25.043Z,13.37
2022-09-15T20:00:30.786Z,13.24
2022-09-15T20:10:39.790Z,13.07
2022-09-15T20:20:45.771Z,12.89
2022-09-15T20:31:01.271Z,12.60
2022-09-15T20:41:09.404Z,12.20
2022-09-15T20:51:17.117Z,11.90
2022-09-15T21:01:24.836Z,11.67
2022-09-15T21:11:31.234Z,11.50
2022-09-15T21:21:37.328Z,11.32
2022-09-15T21:31:43.308Z,11.13
2022-09-15T21:41:49.806Z,10.97
2022-09-15T21:51:56.415Z,10.76
2022-09-15T22:02:02.506Z,10.51
2022-09-15T22:12:08.977Z,10.32
2022-09-15T22:22:14.769Z,10.17
2022-09-15T22:32:20.621Z,10.00
2022-09-15T22:42:27.796Z,9.85
2022-09-15T22:52:33.640Z,9.73
2022-09-15T23:02:39.494Z,9.60
2022-09-15T23:12:45.112Z,9.70
2022-09-15T23:22:50.733Z,9.78
2022-09-15T23:32:56.598Z,9.74
2022-09-15T23:43:02.373Z,9.73
2022-09-15T23:53:08.478Z,10.05
